createdAt,value
2023-03-02T00:00:41.779Z,95.00
2023-03-02T00:03:33.764Z,93.05
2023-03-02T00:06:17.074Z,90.38
2023-03-02T00:09:06.189Z,91.85
2023-03-02T00:11:46.561Z,92.03
2023-03-02T00:14:33.209Z,87.47
2023-03-02T00:17:10.837Z,122.90
2023-03-02T00:20:15.301Z,117.30
2023-03-02T00:22:55.743Z,112.85
2023-03-02T00:25:33.551Z,113.10
2023-03-02T00:28:30.712Z,110.30
2023-03-02T00:31:37.134Z,117.57
2023-03-02T00:34:21.624Z,117.93
2023-03-02T00:37:10.539Z,124.85
2023-03-02T00:39:58.326Z,117.47
2023-03-02T00:42:47.674Z,104.38
2023-03-02T00:45:34.245Z,107.22
2023-03-02T00:48:14.923Z,111.93
2023-03-02T00:51:02.233Z,110.50
2023-03-02T00:53:55.204Z,105.07
2023-03-02T00:56:35.800Z,106.63
2023-03-02T00:59:33.963Z,99.47
2023-03-02T01:02:44.259Z,96.53
2023-03-02T01:05:31.551Z,98.07
2023-03-02T01:08:16.242Z,114.93
2023-03-02T01:11:02.187Z,102.03
2023-03-02T01:13:45.590Z,108.00
2023-03-02T01:16:29.350Z,102.60
2023-03-02T01:19:25.063Z,104.97
2023-03-02T01:22:08.836Z,114.18
2023-03-02T01:24:53.076Z,104.43
2023-03-02T01:27:40.106Z,115.78
2023-03-02T01:30:18.037Z,136.50
2023-03-02T01:33:01.565Z,145.60
2023-03-02T01:35:52.561Z,126.75
2023-03-02T01:38:31.480Z,122.15
2023-03-02T01:41:17.352Z,121.88
2023-03-02T01:44:09.601Z,114.05
2023-03-02T01:46:50.216Z,105.55
2023-03-02T01:49:37.271Z,111.32
2023-03-02T01:52:29.427Z,99.05
2023-03-02T01:55:24.900Z,112.05
2023-03-02T01:58:08.456Z,99.13
2023-03-02T02:00:56.329Z,110.82
2023-03-02T02:03:40.041Z,100.20
2023-03-02T02:06:41.306Z,100.10
2023-03-02T02:09:23.919Z,91.53
2023-03-02T02:12:09.412Z,91.85
2023-03-02T02:14:56.047Z,86.18
2023-03-02T02:17:38.295Z,84.85
2023-03-02T02:20:36.691Z,88.38
2023-03-02T02:23:40.256Z,101.72
2023-03-02T02:26:26.002Z,103.13
2023-03-02T02:29:34.224Z,107.97
2023-03-02T02:32:17.661Z,95.47
2023-03-02T02:35:12.583Z,91.20
2023-03-02T02:37:59.138Z,94.22
2023-03-02T02:40:58.956Z,83.30
2023-03-02T02:43:41.387Z,90.60
2023-03-02T02:46:34.515Z,83.43
2023-03-02T02:49:09.699Z,85.65
2023-03-02T02:51:54.348Z,63.53
2023-03-02T02:54:42.606Z,77.22
2023-03-02T02:57:25.811Z,85.80
2023-03-02T03:00:07.030Z,85.60
2023-03-02T03:02:48.804Z,72.57
2023-03-02T03:05:37.679Z,86.30
2023-03-02T03:08:39.746Z,89.00
2023-03-02T03:11:23.475Z,83.43
2023-03-02T03:14:15.837Z,104.13
2023-03-02T03:16:58.995Z,113.82
2023-03-02T03:19:41.780Z,121.72
2023-03-02T03:22:23.444Z,116.65
2023-03-02T03:25:10.497Z,115.38
2023-03-02T03:27:48.989Z,112.60
2023-03-02T03:30:33.605Z,119.20
2023-03-02T03:33:16.967Z,116.13
2023-03-02T03:35:58.573Z,119.88
2023-03-02T03:38:39.664Z,100.95
2023-03-02T03:41:24.553Z,115.32
2023-03-02T03:44:06.979Z,112.63
2023-03-02T03:46:53.888Z,119.90
2023-03-02T03:49:35.517Z,114.28
2023-03-02T03:52:13.991Z,108.13
2023-03-02T03:54:55.638Z,115.53
2023-03-02T03:57:45.802Z,126.32
2023-03-02T04:00:47.710Z,139.30
2023-03-02T04:03:26.329Z,136.75
2023-03-02T04:06:19.073Z,145.18
2023-03-02T04:09:04.896Z,128.15
2023-03-02T04:11:55.481Z,127.32
2023-03-02T04:14:35.129Z,129.27
2023-03-02T04:17:24.456Z,143.43
2023-03-02T04:20:16.797Z,129.25
2023-03-02T04:23:03.499Z,106.57
2023-03-02T04:25:41.788Z,94.53
2023-03-02T04:28:27.314Z,87.80
2023-03-02T04:31:16.057Z,87.22
2023-03-02T04:33:56.699Z,86.88
2023-03-02T04:36:42.077Z,87.00
2023-03-02T04:39:31.008Z,91.93
2023-03-02T04:42:14.808Z,77.50
2023-03-02T04:45:06.763Z,83.40
2023-03-02T04:47:45.075Z,88.85
2023-03-02T04:50:26.713Z,91.45
2023-03-02T04:53:12.096Z,91.38
2023-03-02T04:55:52.960Z,82.78
2023-03-02T04:58:37.230Z,88.38
2023-03-02T05:01:19.791Z,102.88
2023-03-02T05:04:06.693Z,114.97
2023-03-02T05:06:50.969Z,123.65
2023-03-02T05:09:41.499Z,142.48
2023-03-02T05:12:24.218Z,194.50
2023-03-02T05:15:04.636Z,174.95
2023-03-02T05:17:42.153Z,169.43
2023-03-02T05:20:20.585Z,148.07
2023-03-02T05:23:09.172Z,127.00
2023-03-02T05:25:54.196Z,108.07
2023-03-02T05:28:30.920Z,103.15
2023-03-02T05:31:24.044Z,99.35
2023-03-02T05:34:07.840Z,93.30
2023-03-02T05:36:54.241Z,93.40
2023-03-02T05:39:40.610Z,102.53
2023-03-02T05:42:26.819Z,103.28
2023-03-02T05:45:07.607Z,106.85
2023-03-02T05:47:45.383Z,104.15
2023-03-02T05:50:37.564Z,103.75
2023-03-02T05:53:13.995Z,102.45
2023-03-02T05:56:01.821Z,103.40
2023-03-02T05:58:50.139Z,111.88
2023-03-02T06:01:33.548Z,118.72
2023-03-02T06:04:14.548Z,126.05
2023-03-02T06:07:18.495Z,133.02
2023-03-02T06:09:58.796Z,126.68
2023-03-02T06:12:48.430Z,134.63
2023-03-02T06:15:26.446Z,144.20
2023-03-02T06:18:06.957Z,166.00
2023-03-02T06:20:53.597Z,145.73
2023-03-02T06:23:42.263Z,160.93
2023-03-02T06:26:21.148Z,159.07
2023-03-02T06:28:57.271Z,159.52
2023-03-02T06:31:35.159Z,180.90
2023-03-02T06:37:34.097Z,109.75
2023-03-02T06:40:21.771Z,101.05
2023-03-02T06:43:05.133Z,81.35
2023-03-02T06:45:57.242Z,73.70
2023-03-02T06:48:42.233Z,75.45
2023-03-02T06:51:21.056Z,70.10
2023-03-02T06:54:10.325Z,59.10
2023-03-02T06:56:57.265Z,41.90
2023-03-02T06:59:41.521Z,41.92
2023-03-02T07:02:31.950Z,50.33
2023-03-02T07:05:33.448Z,64.03
2023-03-02T07:08:21.033Z,68.18
2023-03-02T07:11:21.180Z,62.38
2023-03-02T07:14:11.589Z,57.42
2023-03-02T07:17:12.771Z,68.75
2023-03-02T07:19:57.110Z,78.88
2023-03-02T07:22:44.206Z,56.40
2023-03-02T07:25:35.978Z,50.70
2023-03-02T07:28:19.661Z,46.25
2023-03-02T07:31:12.601Z,41.53
2023-03-02T07:34:02.288Z,42.75
2023-03-02T07:36:57.561Z,34.63
2023-03-02T07:39:43.927Z,34.97
2023-03-02T07:42:40.189Z,38.03
2023-03-02T07:45:25.783Z,41.58
2023-03-02T07:48:15.912Z,35.85
2023-03-02T07:51:05.086Z,33.28
2023-03-02T07:53:39.042Z,30.15
2023-03-02T07:56:24.176Z,32.58
2023-03-02T07:59:07.915Z,49.10
2023-03-02T08:05:01.311Z,27.63
2023-03-02T08:07:39.781Z,27.80
2023-03-02T08:10:23.168Z,24.20
2023-03-02T08:13:10.899Z,28.55
2023-03-02T08:15:52.205Z,25.52
2023-03-02T08:18:35.692Z,32.35
2023-03-02T08:21:29.594Z,28.05
2023-03-02T08:24:16.842Z,29.52
2023-03-02T08:27:19.261Z,27.20
2023-03-02T08:29:56.959Z,26.40
2023-03-02T08:32:39.171Z,20.08
2023-03-02T08:35:22.594Z,31.15
2023-03-02T08:38:21.984Z,22.58
2023-03-02T08:41:11.664Z,27.67
2023-03-02T08:43:58.824Z,22.48
2023-03-02T08:46:51.324Z,21.63
2023-03-02T08:49:33.052Z,25.73
2023-03-02T08:52:30.133Z,33.38
2023-03-02T08:55:12.073Z,21.80
2023-03-02T08:57:57.628Z,19.85
2023-03-02T09:00:55.267Z,18.77
2023-03-02T09:03:44.468Z,12.60
2023-03-02T09:06:27.100Z,24.35
2023-03-02T09:09:03.168Z,19.98
2023-03-02T09:11:49.403Z,21.27
2023-03-02T09:14:31.148Z,18.25
2023-03-02T09:17:15.682Z,25.65
2023-03-02T09:19:56.294Z,23.92
2023-03-02T09:22:48.708Z,13.25
2023-03-02T09:25:40.766Z,19.70
2023-03-02T09:28:24.637Z,39.90
2023-03-02T09:31:12.511Z,17.52
2023-03-02T09:34:03.235Z,12.02
2023-03-02T09:36:46.538Z,23.83
2023-03-02T09:39:35.192Z,11.38
2023-03-02T09:42:43.074Z,13.73
2023-03-02T09:45:55.172Z,14.02
2023-03-02T09:48:57.261Z,11.40
2023-03-02T09:51:57.016Z,16.88
2023-03-02T09:54:48.959Z,17.60
2023-03-02T09:57:44.590Z,12.18
2023-03-02T10:00:44.321Z,12.40
2023-03-02T10:03:50.556Z,12.00
2023-03-02T10:06:50.809Z,12.18
2023-03-02T10:09:35.192Z,15.60
2023-03-02T10:12:24.645Z,11.27
2023-03-02T10:15:46.283Z,12.82
2023-03-02T10:18:42.142Z,12.63
2023-03-02T10:21:24.400Z,12.67
2023-03-02T10:24:23.192Z,18.48
2023-03-02T10:27:26.964Z,14.50
2023-03-02T10:30:22.190Z,28.95
2023-03-02T10:33:07.145Z,14.02
2023-03-02T10:35:55.234Z,13.23
2023-03-02T10:38:47.424Z,19.17
2023-03-02T10:41:43.874Z,14.15
2023-03-02T10:44:36.018Z,19.55
2023-03-02T10:47:34.858Z,20.05
2023-03-02T10:50:33.755Z,23.38
2023-03-02T10:53:32.135Z,19.40
2023-03-02T10:56:22.344Z,15.93
2023-03-02T10:59:06.095Z,18.50
2023-03-02T11:01:43.910Z,21.50
2023-03-02T11:04:33.206Z,17.60
2023-03-02T11:07:38.285Z,17.08
2023-03-02T11:10:35.850Z,18.85
2023-03-02T11:13:42.956Z,15.13
2023-03-02T11:16:37.035Z,17.60
2023-03-02T11:19:28.255Z,16.35
2023-03-02T11:22:29.241Z,21.48
2023-03-02T11:25:31.714Z,15.95
2023-03-02T11:28:41.216Z,15.55
2023-03-02T11:31:32.638Z,14.90
2023-03-02T11:34:47.184Z,14.95
2023-03-02T11:37:32.542Z,23.55
2023-03-02T11:40:19.288Z,18.52
2023-03-02T11:43:08.324Z,17.05
2023-03-02T11:46:13.987Z,13.25
2023-03-02T11:49:06.628Z,22.83
2023-03-02T11:52:17.408Z,21.52
2023-03-02T11:55:01.062Z,16.75
2023-03-02T11:57:49.705Z,14.10
2023-03-02T12:00:47.307Z,15.63
2023-03-02T12:03:25.117Z,36.67
2023-03-02T12:06:31.943Z,17.02
2023-03-02T12:09:31.326Z,16.02
2023-03-02T12:12:25.220Z,50.35
2023-03-02T12:15:31.691Z,34.78
2023-03-02T12:18:38.219Z,17.47
2023-03-02T12:21:22.277Z,18.77
2023-03-02T12:24:04.165Z,16.80
2023-03-02T12:26:55.222Z,15.40
2023-03-02T12:29:59.120Z,17.27
2023-03-02T12:33:03.908Z,16.58
2023-03-02T12:36:14.035Z,21.65
2023-03-02T12:39:21.164Z,15.27
2023-03-02T12:42:42.965Z,20.35
2023-03-02T12:45:45.466Z,11.05
2023-03-02T12:48:42.954Z,16.42
2023-03-02T12:51:54.881Z,16.60
2023-03-02T12:54:41.664Z,13.98
2023-03-02T12:57:51.682Z,14.75
2023-03-02T13:00:45.555Z,15.40
2023-03-02T13:03:29.259Z,11.70
2023-03-02T13:06:23.854Z,14.88
2023-03-02T13:09:11.475Z,14.63
2023-03-02T13:11:57.942Z,14.25
2023-03-02T13:14:37.647Z,12.18
2023-03-02T13:17:12.934Z,13.68
2023-03-02T13:20:00.838Z,16.00
2023-03-02T13:22:36.390Z,14.77
2023-03-02T13:25:26.208Z,12.00
2023-03-02T13:28:27.564Z,13.55
2023-03-02T13:31:34.702Z,14.35
2023-03-02T13:34:39.133Z,11.02
2023-03-02T13:37:46.717Z,14.65
2023-03-02T13:40:49.186Z,13.35
2023-03-02T13:43:59.406Z,13.07
2023-03-02T13:46:47.117Z,11.02
2023-03-02T13:49:46.202Z,9.13
2023-03-02T13:53:01.958Z,13.68
2023-03-02T13:55:49.370Z,14.98
2023-03-02T13:58:32.729Z,9.93
2023-03-02T14:01:20.286Z,16.50
2023-03-02T14:04:14.062Z,11.95
2023-03-02T14:07:01.521Z,9.82
2023-03-02T14:09:53.254Z,11.88
2023-03-02T14:12:38.189Z,12.50
2023-03-02T14:15:28.743Z,12.98
2023-03-02T14:18:14.310Z,10.55
2023-03-02T14:21:13.840Z,24.92
2023-03-02T14:26:55.977Z,16.48
2023-03-02T14:29:45.950Z,8.90
2023-03-02T14:32:42.284Z,14.18
2023-03-02T14:35:20.221Z,11.70
2023-03-02T14:38:06.702Z,18.33
2023-03-02T14:40:50.056Z,12.40
2023-03-02T14:43:30.810Z,14.55
2023-03-02T14:46:22.801Z,25.77
2023-03-02T14:49:04.105Z,14.70
2023-03-02T14:52:11.171Z,10.60
2023-03-02T14:55:03.509Z,11.13
2023-03-02T14:57:49.640Z,8.60
2023-03-02T15:00:42.165Z,13.85
2023-03-02T15:03:27.624Z,13.85
2023-03-02T15:06:23.700Z,8.98
2023-03-02T15:09:10.719Z,9.48
2023-03-02T15:11:57.235Z,13.63
2023-03-02T15:14:45.459Z,12.70
2023-03-02T15:17:39.261Z,14.13
2023-03-02T15:20:22.550Z,12.40
2023-03-02T15:23:02.822Z,19.67
2023-03-02T15:25:51.169Z,14.25
2023-03-02T15:28:33.255Z,12.52
2023-03-02T15:31:40.592Z,15.75
2023-03-02T15:34:30.277Z,10.10
2023-03-02T15:37:11.462Z,19.70
2023-03-02T15:42:39.436Z,16.83
2023-03-02T15:45:27.430Z,18.00
2023-03-02T15:48:15.546Z,21.40
2023-03-02T15:51:09.639Z,20.23
2023-03-02T15:53:55.202Z,17.25
2023-03-02T15:56:32.883Z,25.67
2023-03-02T15:59:21.674Z,18.40
2023-03-02T16:02:10.189Z,21.95
2023-03-02T16:04:52.294Z,15.00
2023-03-02T16:08:01.210Z,17.38
2023-03-02T16:10:44.154Z,16.08
2023-03-02T16:13:41.236Z,21.17
2023-03-02T16:16:29.331Z,20.27
2023-03-02T16:19:19.241Z,23.17
2023-03-02T16:22:04.233Z,22.00
2023-03-02T16:27:59.176Z,29.52
2023-03-02T16:30:53.204Z,34.22
2023-03-02T16:33:31.087Z,59.95
2023-03-02T16:36:23.038Z,61.25
2023-03-02T16:39:03.497Z,54.22
2023-03-02T16:41:48.615Z,45.72
2023-03-02T16:44:40.601Z,42.88
2023-03-02T16:47:30.204Z,37.38
2023-03-02T16:50:13.791Z,36.50
2023-03-02T16:52:59.589Z,56.97
2023-03-02T16:55:54.585Z,53.50
2023-03-02T16:58:51.649Z,48.20
2023-03-02T17:01:32.704Z,46.15
2023-03-02T17:04:22.039Z,53.63
2023-03-02T17:07:09.669Z,55.20
2023-03-02T17:09:56.142Z,51.08
2023-03-02T17:12:42.035Z,47.55
2023-03-02T17:15:22.910Z,49.03
2023-03-02T17:18:04.480Z,46.72
2023-03-02T17:20:48.171Z,48.13
2023-03-02T17:23:32.257Z,46.25
2023-03-02T17:26:16.942Z,47.97
2023-03-02T17:29:02.197Z,36.97
2023-03-02T17:31:54.114Z,41.65
2023-03-02T17:34:39.251Z,48.60
2023-03-02T17:37:28.605Z,44.30
2023-03-02T17:40:05.266Z,44.60
2023-03-02T17:42:46.166Z,63.58
2023-03-02T17:45:39.656Z,77.35
2023-03-02T17:48:32.055Z,81.60
2023-03-02T17:51:11.956Z,76.07
2023-03-02T17:53:57.917Z,63.63
2023-03-02T17:56:39.179Z,62.67
2023-03-02T17:59:33.263Z,63.22
2023-03-02T18:02:16.449Z,66.93
2023-03-02T18:05:11.493Z,63.88
2023-03-02T18:07:53.005Z,66.35
2023-03-02T18:10:36.466Z,55.65
2023-03-02T18:13:36.646Z,61.67
2023-03-02T18:16:24.592Z,75.68
2023-03-02T18:19:08.422Z,80.90
2023-03-02T18:21:54.736Z,96.85
2023-03-02T18:24:58.853Z,85.13
2023-03-02T18:27:41.686Z,92.03
2023-03-02T18:30:32.181Z,85.75
2023-03-02T18:33:29.153Z,69.55
2023-03-02T18:36:11.157Z,71.03
2023-03-02T18:38:57.504Z,65.55
2023-03-02T18:41:41.399Z,62.28
2023-03-02T18:44:29.264Z,69.30
2023-03-02T18:47:23.806Z,66.30
2023-03-02T18:50:09.546Z,60.85
2023-03-02T18:52:54.445Z,71.88
2023-03-02T18:55:40.756Z,66.43
2023-03-02T18:58:34.327Z,64.22
2023-03-02T19:01:12.574Z,54.88
2023-03-02T19:04:00.825Z,56.70
2023-03-02T19:06:52.949Z,60.42
2023-03-02T19:09:43.738Z,54.55
2023-03-02T19:12:32.443Z,49.75
2023-03-02T19:15:28.667Z,50.97
2023-03-02T19:18:28.517Z,57.50
2023-03-02T19:21:17.645Z,58.80
2023-03-02T19:23:58.368Z,51.20
2023-03-02T19:26:49.877Z,60.47
2023-03-02T19:29:43.850Z,60.75
2023-03-02T19:32:28.090Z,60.72
2023-03-02T19:35:10.211Z,54.97
2023-03-02T19:37:53.174Z,55.72
2023-03-02T19:40:52.037Z,58.65
2023-03-02T19:43:30.452Z,57.38
2023-03-02T19:46:13.733Z,58.78
2023-03-02T19:49:02.916Z,61.28
2023-03-02T19:51:45.208Z,76.03
2023-03-02T19:54:30.198Z,68.32
2023-03-02T19:57:21.887Z,69.00
2023-03-02T20:00:10.649Z,70.85
2023-03-02T20:02:56.849Z,69.07
2023-03-02T20:05:52.251Z,66.60
2023-03-02T20:08:49.493Z,69.45
2023-03-02T20:11:33.720Z,68.25
2023-03-02T20:14:33.402Z,62.25
2023-03-02T20:17:13.428Z,64.78
2023-03-02T20:19:52.510Z,72.60
2023-03-02T20:22:45.524Z,75.43
2023-03-02T20:25:29.144Z,66.32
2023-03-02T20:28:19.212Z,78.22
2023-03-02T20:31:01.624Z,84.38
2023-03-02T20:33:47.782Z,84.97
2023-03-02T20:36:39.185Z,88.63
2023-03-02T20:39:29.206Z,80.60
2023-03-02T20:42:18.604Z,77.07
2023-03-02T20:45:03.823Z,79.93
2023-03-02T20:47:58.918Z,86.22
2023-03-02T20:50:59.301Z,84.30
2023-03-02T20:53:49.188Z,74.10
2023-03-02T20:56:30.315Z,76.47
2023-03-02T20:59:12.210Z,82.78
2023-03-02T21:02:10.898Z,74.20
2023-03-02T21:05:00.262Z,73.85
2023-03-02T21:07:51.260Z,77.75
2023-03-02T21:10:37.374Z,70.05
2023-03-02T21:13:29.655Z,69.22
2023-03-02T21:16:17.179Z,80.95
2023-03-02T21:19:03.403Z,76.55
2023-03-02T21:21:54.173Z,80.55
2023-03-02T21:24:42.736Z,77.40
2023-03-02T21:27:24.138Z,81.85
2023-03-02T21:30:06.974Z,69.13
2023-03-02T21:32:52.718Z,73.28
2023-03-02T21:35:49.460Z,77.03
2023-03-02T21:38:30.847Z,81.43
2023-03-02T21:41:17.154Z,87.00
2023-03-02T21:44:06.935Z,92.70
2023-03-02T21:46:56.369Z,106.30
2023-03-02T21:49:48.059Z,92.25
2023-03-02T21:52:23.016Z,94.57
2023-03-02T21:55:11.416Z,89.80
2023-03-02T21:57:59.178Z,95.13
2023-03-02T22:00:45.637Z,109.43
2023-03-02T22:03:29.347Z,96.55
2023-03-02T22:06:12.113Z,107.82
2023-03-02T22:09:01.473Z,85.88
2023-03-02T22:11:48.725Z,105.32
2023-03-02T22:14:36.680Z,104.90
2023-03-02T22:17:37.452Z,114.63
2023-03-02T22:20:29.848Z,118.43
2023-03-02T22:23:22.146Z,112.32
2023-03-02T22:26:16.212Z,110.30
2023-03-02T22:29:03.473Z,110.15
2023-03-02T22:31:59.362Z,115.55
2023-03-02T22:34:51.600Z,110.00
2023-03-02T22:37:42.953Z,106.45
2023-03-02T22:40:41.360Z,96.65
2023-03-02T22:43:56.333Z,103.50
2023-03-02T22:46:37.192Z,102.82
2023-03-02T22:49:30.281Z,91.90
2023-03-02T22:52:18.160Z,80.07
2023-03-02T22:55:01.345Z,85.03
2023-03-02T22:57:56.813Z,104.97
2023-03-02T23:00:59.290Z,72.80
2023-03-02T23:03:55.135Z,92.78
2023-03-02T23:07:03.069Z,94.30
2023-03-02T23:09:47.932Z,91.60
2023-03-02T23:12:42.141Z,88.13
2023-03-02T23:18:31.847Z,95.63
2023-03-02T23:21:35.386Z,93.33
2023-03-02T23:24:27.186Z,102.20
2023-03-02T23:27:03.257Z,88.57
2023-03-02T23:29:40.788Z,101.38
2023-03-02T23:32:19.594Z,99.10
2023-03-02T23:35:08.448Z,102.47
2023-03-02T23:37:55.069Z,96.88
2023-03-02T23:40:30.505Z,100.05
2023-03-02T23:43:26.826Z,125.05
2023-03-02T23:46:19.014Z,122.22
2023-03-02T23:49:04.713Z,109.65
2023-03-02T23:51:53.832Z,103.25
2023-03-02T23:54:40.001Z,113.85
2023-03-02T23:57:27.245Z,101.40
